createdAt,value
2016-12-28T00:00:52.929Z,90.05
2016-12-28T00:02:15.074Z,89.57
2016-12-28T00:03:36.843Z,89.95
2016-12-28T00:04:58.617Z,89.86
2016-12-28T00:06:20.729Z,89.86
2016-12-28T00:07:43.187Z,89.86
2016-12-28T00:09:04.990Z,89.95
2016-12-28T00:10:27.498Z,89.67
2016-12-28T00:11:49.654Z,89.81
2016-12-28T00:13:11.506Z,90.52
2016-12-28T00:14:33.904Z,90.8
2016-12-28T00:15:55.996Z,90.23
2016-12-28T00:17:18.120Z,90.19
2016-12-28T00:18:40.601Z,89.81
2016-12-28T00:20:02.938Z,90.61
2016-12-28T00:21:24.777Z,90.8
2016-12-28T00:22:47.197Z,89.95
2016-12-28T00:24:09.415Z,90.61
2016-12-28T00:25:31.849Z,90.42
2016-12-28T00:26:53.719Z,90.61
2016-12-28T00:28:15.801Z,90.05
2016-12-28T00:29:37.407Z,90.61
2016-12-28T00:30:59.205Z,90.14
2016-12-28T00:32:21.347Z,90.14
2016-12-28T00:33:43.141Z,90.42
2016-12-28T00:35:05.244Z,89.28
2016-12-28T00:36:27.055Z,89.76
2016-12-28T00:37:49.240Z,90.05
2016-12-28T00:39:11.510Z,89.76
2016-12-28T00:40:33.285Z,89.86
2016-12-28T00:41:55.456Z,90
2016-12-28T00:43:17.582Z,90.19
2016-12-28T00:44:40.006Z,89.95
2016-12-28T00:46:01.817Z,90.61
2016-12-28T00:47:24.073Z,90.28
2016-12-28T00:48:46.227Z,90.23
2016-12-28T00:50:08.761Z,90.33
2016-12-28T00:51:31.178Z,89.95
2016-12-28T00:52:53.385Z,90.47
2016-12-28T00:54:15.920Z,89.9
2016-12-28T00:55:37.694Z,90.38
2016-12-28T00:56:59.633Z,90.57
2016-12-28T00:58:21.549Z,90.28
2016-12-28T00:59:44.078Z,90.85
2016-12-28T01:01:05.547Z,90.09
2016-12-28T01:02:28.053Z,90
2016-12-28T01:03:50.159Z,89.9
2016-12-28T01:05:12.264Z,90.09
2016-12-28T01:06:33.739Z,90.19
2016-12-28T01:07:55.840Z,90.28
2016-12-28T01:09:17.934Z,90.19
2016-12-28T01:10:39.799Z,90.38
2016-12-28T01:12:01.962Z,90.38
2016-12-28T01:13:23.850Z,90.09
2016-12-28T01:14:45.640Z,90.28
2016-12-28T01:16:07.825Z,90.66
2016-12-28T01:17:29.663Z,90.76
2016-12-28T01:18:51.594Z,90.85
2016-12-28T01:20:13.395Z,91.14
2016-12-28T01:21:35.519Z,91.61
2016-12-28T01:22:57.649Z,91.99
2016-12-28T01:24:19.441Z,92.18
2016-12-28T01:25:41.347Z,92.18
2016-12-28T01:27:03.856Z,91.89
2016-12-28T01:28:25.657Z,91.71
2016-12-28T01:29:47.964Z,91.24
2016-12-28T01:31:09.736Z,91.14
2016-12-28T01:32:31.820Z,91.42
2016-12-28T01:33:53.902Z,91.14
2016-12-28T01:35:16.012Z,91.24
2016-12-28T01:36:38.138Z,91.52
2016-12-28T01:37:59.731Z,91.8
2016-12-28T01:39:21.525Z,92.09
2016-12-28T01:40:43.635Z,92.09
2016-12-28T01:42:06.041Z,91.8
2016-12-28T01:43:27.831Z,91.52
2016-12-28T01:44:49.916Z,91.89
2016-12-28T01:46:11.816Z,92.18
2016-12-28T01:47:33.720Z,91.89
2016-12-28T01:48:55.485Z,92.37
2016-12-28T01:50:16.956Z,92.42
2016-12-28T01:51:38.780Z,92.37
2016-12-28T01:53:00.660Z,92.56
2016-12-28T01:54:23.197Z,92.8
2016-12-28T01:55:44.996Z,92.94
2016-12-28T01:57:07.526Z,92.66
2016-12-28T01:58:29.393Z,92.85
2016-12-28T01:59:51.524Z,93.04
2016-12-28T02:01:13.020Z,92.9
2016-12-28T02:02:35.116Z,92.9
2016-12-28T02:03:56.585Z,93.13
2016-12-28T02:05:18.082Z,92.33
2016-12-28T02:06:39.906Z,92.56
2016-12-28T02:08:02.377Z,92.56
2016-12-28T02:09:24.155Z,92.37
2016-12-28T02:10:45.318Z,92.37
2016-12-28T02:12:07.402Z,92.56
2016-12-28T02:13:28.874Z,92.47
2016-12-28T02:14:50.847Z,92.42
2016-12-28T02:16:12.615Z,92.09
2016-12-28T02:17:34.817Z,92.75
2016-12-28T02:18:55.977Z,92.04
2016-12-28T02:20:18.139Z,92.71
2016-12-28T02:21:40.233Z,92.42
2016-12-28T02:23:02.323Z,92.9
2016-12-28T02:24:23.799Z,92.9
2016-12-28T02:25:45.640Z,93.08
2016-12-28T02:27:07.207Z,92.71
2016-12-28T02:28:29.096Z,93.18
2016-12-28T02:29:51.349Z,93.75
2016-12-28T02:31:13.303Z,93.27
2016-12-28T02:32:35.784Z,93.46
2016-12-28T02:33:57.641Z,93.46
2016-12-28T02:35:20.042Z,93.08
2016-12-28T02:36:42.153Z,93.08
2016-12-28T02:38:04.551Z,93.46
2016-12-28T02:39:26.713Z,93.18
2016-12-28T02:40:48.820Z,92.99
2016-12-28T02:42:10.281Z,93.08
2016-12-28T02:43:32.115Z,93.37
2016-12-28T02:44:53.600Z,93.27
2016-12-28T02:46:15.378Z,93.08
2016-12-28T02:47:37.480Z,92.71
2016-12-28T02:48:59.378Z,93.56
2016-12-28T02:50:21.563Z,93.7
2016-12-28T02:51:43.358Z,93.89
2016-12-28T02:53:05.755Z,93.8
2016-12-28T02:54:27.846Z,94.56
2016-12-28T02:55:49.933Z,94.27
2016-12-28T02:57:11.403Z,95.12
2016-12-28T02:58:33.226Z,94.56
2016-12-28T02:59:55.321Z,94.65
2016-12-28T03:01:17.258Z,94.79
2016-12-28T03:02:38.735Z,94.89
2016-12-28T03:04:00.518Z,95.65
2016-12-28T03:05:22.697Z,95.17
2016-12-28T03:06:44.901Z,95.36
2016-12-28T03:08:07.111Z,95.55
2016-12-28T03:09:28.703Z,95.65
2016-12-28T03:10:50.488Z,96.03
2016-12-28T03:12:11.743Z,95.84
2016-12-28T03:13:33.838Z,96.31
2016-12-28T03:14:55.967Z,96.5
2016-12-28T03:16:18.112Z,96.97
2016-12-28T03:17:39.895Z,96.59
2016-12-28T03:19:01.820Z,96.88
2016-12-28T03:20:24.049Z,96.78
2016-12-28T03:21:46.163Z,96.97
2016-12-28T03:23:08.311Z,97.45
2016-12-28T03:24:30.852Z,97.35
2016-12-28T03:25:53.033Z,97.45
2016-12-28T03:27:15.508Z,97.54
2016-12-28T03:28:37.623Z,97.54
2016-12-28T03:30:00.074Z,97.45
2016-12-28T03:31:22.482Z,97.64
2016-12-28T03:32:44.659Z,97.26
2016-12-28T03:34:06.449Z,97.64
2016-12-28T03:35:28.272Z,97.54
2016-12-28T03:36:50.107Z,97.64
2016-12-28T03:38:12.210Z,97.64
2016-12-28T03:39:34.001Z,97.35
2016-12-28T03:40:55.762Z,97.45
2016-12-28T03:42:17.902Z,97.83
2016-12-28T03:43:39.361Z,97.92
2016-12-28T03:45:01.220Z,97.83
2016-12-28T03:46:23.007Z,97.35
2016-12-28T03:47:44.521Z,97.92
2016-12-28T03:49:06.835Z,97.73
2016-12-28T03:50:29.049Z,97.45
2016-12-28T03:51:51.441Z,97.49
2016-12-28T03:53:13.041Z,97.49
2016-12-28T03:54:34.947Z,97.49
2016-12-28T03:55:56.514Z,97.49
2016-12-28T03:57:19.054Z,97.49
2016-12-28T03:58:40.927Z,97.78
2016-12-28T04:00:02.732Z,97.68
2016-12-28T04:01:24.521Z,97.78
2016-12-28T04:02:45.727Z,97.3
2016-12-28T04:04:08.221Z,97.87
2016-12-28T04:05:30.615Z,97.59
2016-12-28T04:06:52.382Z,97.4
2016-12-28T04:08:14.790Z,97.87
2016-12-28T04:09:37.378Z,97.97
2016-12-28T04:10:59.173Z,97.87
2016-12-28T04:12:21.263Z,97.87
2016-12-28T04:13:43.802Z,97.87
2016-12-28T04:15:06.217Z,97.49
2016-12-28T04:16:28.623Z,97.49
2016-12-28T04:17:51.105Z,97.78
2016-12-28T04:19:13.189Z,97.59
2016-12-28T04:20:35.015Z,97.59
2016-12-28T04:21:57.226Z,97.87
2016-12-28T04:23:19.381Z,97.97
2016-12-28T04:24:41.148Z,98.06
2016-12-28T04:26:02.930Z,97.78
2016-12-28T04:27:25.037Z,98.54
2016-12-28T04:28:46.890Z,98.44
2016-12-28T04:30:08.975Z,97.78
2016-12-28T04:31:30.736Z,97.59
2016-12-28T04:32:52.612Z,97.78
2016-12-28T04:34:14.402Z,97.49
2016-12-28T04:35:36.915Z,97.25
2016-12-28T04:36:58.697Z,97.35
2016-12-28T04:38:20.456Z,97.73
2016-12-28T04:39:42.231Z,97.54
2016-12-28T04:41:04.303Z,97.92
2016-12-28T04:42:26.442Z,97.54
2016-12-28T04:43:48.551Z,97.63
2016-12-28T04:45:10.967Z,97.82
2016-12-28T04:46:32.856Z,97.73
2016-12-28T04:47:54.956Z,97.35
2016-12-28T04:49:17.116Z,97.82
2016-12-28T04:50:38.890Z,98.01
2016-12-28T04:52:00.970Z,97.92
2016-12-28T04:53:22.794Z,97.54
2016-12-28T04:54:45.189Z,98.3
2016-12-28T04:56:07.111Z,98.39
2016-12-28T04:57:29.183Z,98.68
2016-12-28T04:58:51.273Z,98.58
2016-12-28T05:00:13.369Z,97.73
2016-12-28T05:01:35.156Z,97.73
2016-12-28T05:02:57.268Z,97.73
2016-12-28T05:04:19.353Z,97.54
2016-12-28T05:05:41.130Z,97.54
2016-12-28T05:07:03.224Z,97.73
2016-12-28T05:08:25.512Z,98.68
2016-12-28T05:09:47.922Z,98.2
2016-12-28T05:11:10.137Z,98.68
2016-12-28T05:12:32.222Z,98.68
2016-12-28T05:13:54.072Z,98.58
2016-12-28T05:15:15.953Z,97.44
2016-12-28T05:16:37.736Z,97.92
2016-12-28T05:17:59.858Z,98.11
2016-12-28T05:19:21.944Z,97.92
2016-12-28T05:20:44.200Z,97.73
2016-12-28T05:22:06.112Z,98.39
2016-12-28T05:23:28.514Z,98.68
2016-12-28T05:24:50.280Z,98.86
2016-12-28T05:26:12.699Z,98.49
2016-12-28T05:27:34.888Z,98.3
2016-12-28T05:28:57.496Z,98.3
2016-12-28T05:30:19.926Z,98.2
2016-12-28T05:31:41.721Z,98.58
2016-12-28T05:33:03.492Z,98.96
2016-12-28T05:34:25.589Z,98.68
2016-12-28T05:35:48.098Z,98.68
2016-12-28T05:37:09.859Z,98.68
2016-12-28T05:38:31.369Z,98.86
2016-12-28T05:39:53.792Z,98.2
2016-12-28T05:41:16.311Z,98.58
2016-12-28T05:42:38.399Z,98.39
2016-12-28T05:44:00.199Z,97.44
2016-12-28T05:45:21.971Z,98.39
2016-12-28T05:46:44.158Z,98.3
2016-12-28T05:48:06.251Z,98.01
2016-12-28T05:49:28.657Z,97.54
2016-12-28T05:50:50.758Z,97.63
2016-12-28T05:52:12.844Z,98.49
2016-12-28T05:53:35.322Z,98.49
2016-12-28T05:54:56.803Z,98.58
2016-12-28T05:56:18.881Z,98.49
2016-12-28T05:57:41.280Z,97.92
2016-12-28T05:59:03.704Z,98.49
2016-12-28T06:00:25.513Z,98.86
2016-12-28T06:01:47.073Z,98.58
2016-12-28T06:03:09.215Z,99.24
2016-12-28T06:04:31.615Z,99.62
2016-12-28T06:05:53.426Z,99.05
2016-12-28T06:07:15.802Z,99.15
2016-12-28T06:08:37.940Z,99.15
2016-12-28T06:10:00.056Z,99.15
2016-12-28T06:11:22.231Z,99.43
2016-12-28T06:12:44.313Z,99.15
2016-12-28T06:14:06.515Z,99.15
2016-12-28T06:15:28.278Z,99.15
2016-12-28T06:16:50.506Z,99.29
2016-12-28T06:18:12.587Z,99.2
2016-12-28T06:19:34.992Z,99.2
2016-12-28T06:20:57.067Z,99.2
2016-12-28T06:22:18.849Z,99.01
2016-12-28T06:23:40.971Z,99.01
2016-12-28T06:25:02.994Z,99.01
2016-12-28T06:26:25.522Z,99.01
2016-12-28T06:27:46.984Z,99.01
2016-12-28T06:29:08.758Z,99.48
2016-12-28T06:30:31.497Z,99.01
2016-12-28T06:31:52.633Z,99.01
2016-12-28T06:33:15.184Z,99.2
2016-12-28T06:34:37.406Z,99.1
2016-12-28T06:35:59.537Z,99.2
2016-12-28T06:37:21.306Z,99.2
2016-12-28T06:38:42.843Z,99.39
2016-12-28T06:40:05.265Z,99.48
2016-12-28T06:41:27.407Z,98.91
2016-12-28T06:42:49.223Z,99.01
2016-12-28T06:44:11.343Z,99.1
2016-12-28T06:45:33.493Z,99.39
2016-12-28T06:46:55.319Z,99.29
2016-12-28T06:48:16.888Z,99.01
2016-12-28T06:49:38.973Z,99.29
2016-12-28T06:51:01.073Z,99.39
2016-12-28T06:52:22.853Z,99.2
2016-12-28T06:53:44.989Z,99.29
2016-12-28T06:55:06.818Z,99.29
2016-12-28T06:56:28.922Z,99.1
2016-12-28T06:57:51.320Z,99.58
2016-12-28T06:59:13.425Z,98.72
2016-12-28T07:00:34.662Z,98.72
2016-12-28T07:01:57.069Z,98.63
2016-12-28T07:03:18.843Z,98.35
2016-12-28T07:04:41.399Z,98.39
2016-12-28T07:06:03.491Z,98.58
2016-12-28T07:07:25.637Z,98.58
2016-12-28T07:08:47.740Z,98.39
2016-12-28T07:10:09.823Z,98.2
2016-12-28T07:11:31.918Z,98.68
2016-12-28T07:12:54.439Z,98.68
2016-12-28T07:14:16.867Z,98.77
2016-12-28T07:15:38.979Z,98.68
2016-12-28T07:17:00.984Z,98.39
2016-12-28T07:18:23.096Z,98.2
2016-12-28T07:19:45.522Z,98.2
2016-12-28T07:21:07.953Z,98.39
2016-12-28T07:22:30.482Z,98.3
2016-12-28T07:23:52.873Z,98.3
2016-12-28T07:25:15.030Z,98.11
2016-12-28T07:26:36.802Z,98.2
2016-12-28T07:27:58.688Z,98.3
2016-12-28T07:29:20.496Z,98.39
2016-12-28T07:30:42.719Z,98.58
2016-12-28T07:32:04.956Z,98.58
2016-12-28T07:33:26.793Z,98.2
2016-12-28T07:34:48.665Z,98.3
2016-12-28T07:36:10.445Z,98.3
2016-12-28T07:37:32.663Z,98.39
2016-12-28T07:38:54.762Z,98.3
2016-12-28T07:40:16.217Z,98.77
2016-12-28T07:41:38.007Z,98.58
2016-12-28T07:42:59.880Z,98.86
2016-12-28T07:44:21.968Z,98.68
2016-12-28T07:45:44.093Z,98.39
2016-12-28T07:47:06.486Z,98.49
2016-12-28T07:48:28.256Z,98.39
2016-12-28T07:49:50.391Z,98.3
2016-12-28T07:51:12.477Z,98.3
2016-12-28T07:52:34.581Z,98.2
2016-12-28T07:53:56.369Z,98.39
2016-12-28T07:55:18.476Z,98.58
2016-12-28T07:56:40.982Z,98.3
2016-12-28T07:58:03.200Z,97.92
2016-12-28T07:59:24.678Z,97.44
2016-12-28T08:00:46.448Z,97.73
2016-12-28T08:02:07.904Z,97.63
2016-12-28T08:03:29.368Z,97.73
2016-12-28T08:04:51.752Z,97.63
2016-12-28T08:06:14.224Z,97.82
2016-12-28T08:07:35.984Z,97.63
2016-12-28T08:08:57.793Z,97.73
2016-12-28T08:10:20.197Z,97.44
2016-12-28T08:11:42.279Z,97.54
2016-12-28T08:13:04.383Z,97.92
2016-12-28T08:14:25.532Z,97.54
2016-12-28T08:15:47.665Z,97.54
2016-12-28T08:17:09.771Z,98.2
2016-12-28T08:18:31.911Z,97.77
2016-12-28T08:19:53.989Z,97.44
2016-12-28T08:21:16.100Z,97.44
2016-12-28T08:22:38.207Z,97.44
2016-12-28T08:23:59.787Z,97.35
2016-12-28T08:25:22.029Z,97.25
2016-12-28T08:26:44.129Z,97.44
2016-12-28T08:28:06.230Z,97.25
2016-12-28T08:29:28.325Z,97.82
2016-12-28T08:30:50.432Z,97.82
2016-12-28T08:32:12.959Z,97.54
2016-12-28T08:33:34.449Z,97.92
2016-12-28T08:34:56.213Z,98.58
2016-12-28T08:36:18.421Z,98.49
2016-12-28T08:37:40.967Z,98.68
2016-12-28T08:39:02.426Z,98.82
2016-12-28T08:40:24.202Z,98.54
2016-12-28T08:41:46.358Z,98.54
2016-12-28T08:43:08.464Z,98.82
2016-12-28T08:44:30.592Z,98.72
2016-12-28T08:45:52.078Z,98.63
2016-12-28T08:47:13.555Z,98.72
2016-12-28T08:48:35.977Z,98.72
2016-12-28T08:49:57.893Z,98.3
2016-12-28T08:51:20.102Z,98.3
2016-12-28T08:52:42.185Z,98.68
2016-12-28T08:54:04.404Z,98.21
2016-12-28T08:55:26.537Z,98.58
2016-12-28T08:56:48.313Z,98.49
2016-12-28T08:58:09.936Z,97.92
2016-12-28T08:59:31.407Z,97.69
2016-12-28T09:00:53.912Z,97.5
2016-12-28T09:02:16.326Z,97.78
2016-12-28T09:03:38.172Z,97.5
2016-12-28T09:05:00.288Z,97.59
2016-12-28T09:06:22.276Z,97.78
2016-12-28T09:07:44.398Z,97.59
2016-12-28T09:09:06.540Z,97.07
2016-12-28T09:10:28.310Z,97.07
2016-12-28T09:11:50.844Z,96.78
2016-12-28T09:13:12.959Z,96.69
2016-12-28T09:14:35.339Z,96.5
2016-12-28T09:15:57.545Z,95.93
2016-12-28T09:17:19.697Z,95.55
2016-12-28T09:18:41.189Z,95.51
2016-12-28T09:20:03.283Z,95.89
2016-12-28T09:21:25.179Z,95.22
2016-12-28T09:22:47.264Z,94.46
2016-12-28T09:24:09.401Z,94.65
2016-12-28T09:25:30.833Z,93.7
2016-12-28T09:26:53.305Z,93.8
2016-12-28T09:28:15.402Z,94.13
2016-12-28T09:29:36.917Z,93.94
2016-12-28T09:30:59.075Z,94.03
2016-12-28T09:32:21.175Z,93.27
2016-12-28T09:33:43.328Z,92.9
2016-12-28T09:35:05.804Z,92.32
2016-12-28T09:36:28.042Z,92.71
2016-12-28T09:37:50.441Z,93.27
2016-12-28T09:39:12.226Z,93.18
2016-12-28T09:40:34.058Z,92.71
2016-12-28T09:41:56.164Z,93.18
2016-12-28T09:43:17.999Z,93.27
2016-12-28T09:44:40.114Z,93.94
2016-12-28T09:46:02.354Z,92.99
2016-12-28T09:47:24.164Z,93.23
2016-12-28T09:48:46.297Z,92.46
2016-12-28T09:50:07.762Z,92.37
2016-12-28T09:51:30.303Z,92.27
2016-12-28T09:52:52.720Z,92.27
2016-12-28T09:54:14.943Z,91.8
2016-12-28T09:55:36.728Z,91.61
2016-12-28T09:56:59.165Z,91.13
2016-12-28T09:58:21.264Z,91.52
2016-12-28T09:59:43.152Z,90.56
2016-12-28T10:01:05.519Z,90.75
2016-12-28T10:02:27.996Z,91.33
2016-12-28T10:03:50.088Z,91.42
2016-12-28T10:05:11.564Z,91.52
2016-12-28T10:06:33.179Z,91.52
2016-12-28T10:07:55.589Z,91.71
2016-12-28T10:09:18.051Z,91.04
2016-12-28T10:10:39.970Z,90.85
2016-12-28T10:12:01.462Z,90.56
2016-12-28T10:13:23.676Z,90
2016-12-28T10:14:45.228Z,90
2016-12-28T10:16:07.044Z,89.9
2016-12-28T10:17:28.486Z,90
2016-12-28T10:18:50.906Z,89.9
2016-12-28T10:20:13.097Z,89.23
2016-12-28T10:21:35.621Z,90.19
2016-12-28T10:22:57.753Z,89.71
2016-12-28T10:24:20.167Z,89.8
2016-12-28T10:25:42.035Z,89.52
2016-12-28T10:27:04.179Z,88.19
2016-12-28T10:28:26.263Z,89.04
2016-12-28T10:29:48.344Z,88.95
2016-12-28T10:31:10.454Z,89.04
2016-12-28T10:32:32.575Z,88.57
2016-12-28T10:33:54.373Z,88.67
2016-12-28T10:35:16.975Z,88.57
2016-12-28T10:36:39.082Z,88
2016-12-28T10:38:01.604Z,87.81
2016-12-28T10:39:23.719Z,86.95
2016-12-28T10:40:45.530Z,86.95
2016-12-28T10:42:07.078Z,86.57
2016-12-28T10:43:28.878Z,86.76
2016-12-28T10:44:50.740Z,86.1
2016-12-28T10:46:12.237Z,85.34
2016-12-28T10:47:34.088Z,85.72
2016-12-28T10:48:55.582Z,84.95
2016-12-28T10:50:18.004Z,85.34
2016-12-28T10:51:40.296Z,85.15
2016-12-28T10:53:02.414Z,85.34
2016-12-28T10:54:24.235Z,85.53
2016-12-28T10:55:46.430Z,85.05
2016-12-28T10:57:08.844Z,85.81
2016-12-28T10:58:30.711Z,85.24
2016-12-28T10:59:53.269Z,84.86
2016-12-28T11:01:15.153Z,84.58
2016-12-28T11:02:37.580Z,84.86
2016-12-28T11:04:00.073Z,84.86
2016-12-28T11:05:22.522Z,84.58
2016-12-28T11:06:43.729Z,84.86
2016-12-28T11:08:05.946Z,84.39
2016-12-28T11:09:27.510Z,84.77
2016-12-28T11:10:49.305Z,84.01
2016-12-28T11:12:11.100Z,83.82
2016-12-28T11:13:33.635Z,83.72
2016-12-28T11:14:55.105Z,84.2
2016-12-28T11:16:17.235Z,84.2
2016-12-28T11:17:39.372Z,84.1
2016-12-28T11:19:01.531Z,83.72
2016-12-28T11:20:23.837Z,83.44
2016-12-28T11:21:45.761Z,83.44
2016-12-28T11:23:07.863Z,83.44
2016-12-28T11:24:29.045Z,82.96
2016-12-28T11:25:51.177Z,82.91
2016-12-28T11:27:13.085Z,83.25
2016-12-28T11:28:34.879Z,83.44
2016-12-28T11:29:56.714Z,82.43
2016-12-28T11:31:18.884Z,81.77
2016-12-28T11:32:41.476Z,82.2
2016-12-28T11:34:03.351Z,83.1
2016-12-28T11:35:25.147Z,82.24
2016-12-28T11:36:47.395Z,81.86
2016-12-28T11:38:09.179Z,82.34
2016-12-28T11:39:30.979Z,82.24
2016-12-28T11:40:53.075Z,81.77
2016-12-28T11:42:14.904Z,80.53
2016-12-28T11:43:37.459Z,81.2
2016-12-28T11:44:59.237Z,80.72
2016-12-28T11:46:21.020Z,80.44
2016-12-28T11:47:43.142Z,79.86
2016-12-28T11:49:05.268Z,81.29
2016-12-28T11:50:27.703Z,80.44
2016-12-28T11:51:49.821Z,80.44
2016-12-28T11:53:12.334Z,80.15
2016-12-28T11:54:34.800Z,79.58
2016-12-28T11:55:57.262Z,80.24
2016-12-28T11:57:19.820Z,79.49
2016-12-28T11:58:42.659Z,79.2
2016-12-28T12:00:05.255Z,78.72
2016-12-28T12:01:27.750Z,78.34
2016-12-28T12:02:50.591Z,77.58
2016-12-28T12:04:13.096Z,77.68
2016-12-28T12:05:35.216Z,77.58
2016-12-28T12:06:57.680Z,77.2
2016-12-28T12:08:19.738Z,77.3
2016-12-28T12:09:41.378Z,77.11
2016-12-28T12:11:03.043Z,77.3
2016-12-28T12:12:25.515Z,77.97
2016-12-28T12:13:47.975Z,78.16
2016-12-28T12:15:10.427Z,78.72
2016-12-28T12:16:32.587Z,77.87
2016-12-28T12:17:54.633Z,77.97
2016-12-28T12:19:16.679Z,78.25
2016-12-28T12:20:39.513Z,77.2
2016-12-28T12:22:01.258Z,78.16
2016-12-28T12:23:23.714Z,78.25
2016-12-28T12:24:46.593Z,77.87
2016-12-28T12:26:09.035Z,78.91
2016-12-28T12:27:31.552Z,78.44
2016-12-28T12:28:53.980Z,78.63
2016-12-28T12:30:16.009Z,78.06
2016-12-28T12:31:38.845Z,78.53
2016-12-28T12:33:01.390Z,77.92
2016-12-28T12:34:23.504Z,78.02
2016-12-28T12:35:45.996Z,78.78
2016-12-28T12:37:08.833Z,79.68
2016-12-28T12:38:31.298Z,79.06
2016-12-28T12:39:53.067Z,79.58
2016-12-28T12:41:15.667Z,79.35
2016-12-28T12:42:37.326Z,78.59
2016-12-28T12:44:00.189Z,79.01
2016-12-28T12:45:23.111Z,78.69
2016-12-28T12:46:45.664Z,78.4
2016-12-28T12:48:08.505Z,78.97
2016-12-28T12:49:30.945Z,78.59
2016-12-28T12:50:53.860Z,78.59
2016-12-28T12:52:16.326Z,78.02
2016-12-28T12:53:39.292Z,78.5
2016-12-28T12:55:01.480Z,78.78
2016-12-28T12:56:23.940Z,78.59
2016-12-28T12:57:46.755Z,78.59
2016-12-28T12:59:09.584Z,79.25
2016-12-28T13:00:32.110Z,78.59
2016-12-28T13:01:54.992Z,78.59
2016-12-28T13:03:17.923Z,78.11
2016-12-28T13:04:39.997Z,77.45
2016-12-28T13:06:02.050Z,77.07
2016-12-28T13:07:24.509Z,76.78
2016-12-28T13:08:46.644Z,77.73
2016-12-28T13:10:09.204Z,77.92
2016-12-28T13:11:31.407Z,78.3
2016-12-28T13:12:53.857Z,77.26
2016-12-28T13:14:16.716Z,77.36
2016-12-28T13:15:39.141Z,76.97
2016-12-28T13:17:01.179Z,76.69
2016-12-28T13:18:23.774Z,76.31
2016-12-28T13:19:45.839Z,76.4
2016-12-28T13:21:08.682Z,76.03
2016-12-28T13:22:31.144Z,76.31
2016-12-28T13:23:54.009Z,76.4
2016-12-28T13:25:16.620Z,76.03
2016-12-28T13:26:39.473Z,76.21
2016-12-28T13:28:02.403Z,76.5
2016-12-28T13:29:24.436Z,76.78
2016-12-28T13:30:46.975Z,77.36
2016-12-28T13:32:09.034Z,77.36
2016-12-28T13:33:31.068Z,77.64
2016-12-28T13:34:53.755Z,77.83
2016-12-28T13:36:16.164Z,77.92
2016-12-28T13:37:38.352Z,78.11
2016-12-28T13:39:00.790Z,78.5
2016-12-28T13:40:23.727Z,79.25
2016-12-28T13:41:45.790Z,79.16
2016-12-28T13:43:07.466Z,79.63
2016-12-28T13:44:29.986Z,79.73
2016-12-28T13:45:52.850Z,79.63
2016-12-28T13:47:15.034Z,80.02
2016-12-28T13:48:37.202Z,79.63
2016-12-28T13:50:00.688Z,79.92
2016-12-28T13:51:22.758Z,79.73
2016-12-28T13:52:45.677Z,80.02
2016-12-28T13:54:08.545Z,80.3
2016-12-28T13:55:31.099Z,80.49
2016-12-28T13:56:53.564Z,80.49
2016-12-28T13:58:15.327Z,80.68
2016-12-28T13:59:37.774Z,80.3
2016-12-28T14:01:00.211Z,80.87
2016-12-28T14:02:22.249Z,80.4
2016-12-28T14:03:44.310Z,80.49
2016-12-28T14:05:06.763Z,80.68
2016-12-28T14:06:29.215Z,81.06
2016-12-28T14:07:52.034Z,81.16
2016-12-28T14:09:13.700Z,81.35
2016-12-28T14:10:36.142Z,80.3
2016-12-28T14:11:59.079Z,80.87
2016-12-28T14:13:21.534Z,80.83
2016-12-28T14:14:43.713Z,81.06
2016-12-28T14:16:05.367Z,81.16
2016-12-28T14:17:27.965Z,81.12
2016-12-28T14:18:50.609Z,81.06
2016-12-28T14:20:12.641Z,81.12
2016-12-28T14:21:34.698Z,80.93
2016-12-28T14:22:57.564Z,80.16
2016-12-28T14:24:20.410Z,79.31
2016-12-28T14:25:42.468Z,78.5
2016-12-28T14:27:04.947Z,77.03
2016-12-28T14:28:27.410Z,76.84
2016-12-28T14:29:50.369Z,75.79
2016-12-28T14:31:13.349Z,76.18
2016-12-28T14:32:36.269Z,75.13
2016-12-28T14:33:59.096Z,74.85
2016-12-28T14:35:22.039Z,74.75
2016-12-28T14:36:44.604Z,75.23
2016-12-28T14:38:07.643Z,74.27
2016-12-28T14:39:30.471Z,71.9
2016-12-28T14:40:52.904Z,70.76
2016-12-28T14:42:15.352Z,70.57
2016-12-28T14:43:37.798Z,70.57
2016-12-28T14:45:00.392Z,70.95
2016-12-28T14:46:22.447Z,71.04
2016-12-28T14:47:44.501Z,70.67
2016-12-28T14:49:39.015Z,72.19
2016-12-28T14:51:01.570Z,72.95
2016-12-28T14:52:23.780Z,72.28
2016-12-28T14:53:45.846Z,72.28
2016-12-28T14:55:08.323Z,73.04
2016-12-28T14:56:31.273Z,72
2016-12-28T14:57:54.290Z,72.85
2016-12-28T14:59:17.136Z,72.09
2016-12-28T15:00:39.233Z,71.81
2016-12-28T15:02:01.772Z,72.56
2016-12-28T15:03:24.422Z,72.47
2016-12-28T15:04:47.268Z,73.23
2016-12-28T15:06:09.306Z,72.09
2016-12-28T15:07:31.364Z,72.19
2016-12-28T15:08:53.881Z,71.52
2016-12-28T15:10:16.735Z,71.23
2016-12-28T15:11:39.219Z,71.9
2016-12-28T15:13:02.083Z,72.19
2016-12-28T15:14:24.575Z,72.47
2016-12-28T15:15:47.048Z,72.19
2016-12-28T15:17:08.793Z,72.56
2016-12-28T15:18:30.841Z,72
2016-12-28T15:19:53.297Z,71.81
2016-12-28T15:21:15.464Z,72.09
2016-12-28T15:22:37.934Z,71.81
2016-12-28T15:24:00.771Z,72.09
2016-12-28T15:25:22.810Z,72
2016-12-28T15:26:45.358Z,72.47
2016-12-28T15:28:08.190Z,72.47
2016-12-28T15:29:30.772Z,72.09
2016-12-28T15:30:52.811Z,72.28
2016-12-28T15:32:14.845Z,72.19
2016-12-28T15:33:37.294Z,72.47
2016-12-28T15:34:59.324Z,72.47
2016-12-28T15:36:22.146Z,71.71
2016-12-28T15:37:44.189Z,72.38
2016-12-28T15:39:05.869Z,72.95
2016-12-28T15:40:28.349Z,73.42
2016-12-28T15:41:50.577Z,73.8
2016-12-28T15:43:13.054Z,73.14
2016-12-28T15:44:35.277Z,72.66
2016-12-28T15:45:57.505Z,72.47
2016-12-28T15:47:19.565Z,72
2016-12-28T15:48:41.621Z,72.47
2016-12-28T15:50:03.749Z,72.66
2016-12-28T15:51:26.586Z,72.38
2016-12-28T15:52:49.039Z,73.14
2016-12-28T15:54:11.554Z,73.99
2016-12-28T15:55:33.604Z,74.47
2016-12-28T15:56:56.073Z,75.7
2016-12-28T15:58:18.893Z,76.46
2016-12-28T15:59:41.770Z,76.56
2016-12-28T16:01:04.225Z,75.7
2016-12-28T16:02:26.296Z,75.42
2016-12-28T16:03:48.743Z,76.27
2016-12-28T16:05:10.912Z,76.27
2016-12-28T16:06:33.434Z,76.56
2016-12-28T16:07:56.422Z,77.03
2016-12-28T16:09:18.867Z,77.03
2016-12-28T16:10:41.735Z,76.84
2016-12-28T16:12:04.579Z,76.27
2016-12-28T16:13:26.650Z,76.93
2016-12-28T16:14:49.126Z,77.12
2016-12-28T16:16:11.578Z,77.03
2016-12-28T16:17:34.078Z,77.6
2016-12-28T16:18:56.718Z,77.41
2016-12-28T16:20:18.450Z,77.6
2016-12-28T16:21:40.917Z,77.51
2016-12-28T16:23:03.333Z,77.7
2016-12-28T16:24:25.393Z,77.89
2016-12-28T16:25:48.224Z,78.27
2016-12-28T16:27:10.358Z,78.17
2016-12-28T16:29:04.334Z,78.45
2016-12-28T16:30:28.156Z,78.45
2016-12-28T16:31:50.209Z,79.41
2016-12-28T16:33:13.191Z,79.03
2016-12-28T16:34:35.702Z,79.08
2016-12-28T16:35:58.530Z,79.31
2016-12-28T16:37:20.182Z,78.93
2016-12-28T16:38:42.669Z,79.03
2016-12-28T16:40:04.729Z,78.74
2016-12-28T16:41:27.273Z,78.93
2016-12-28T16:42:50.176Z,78.45
2016-12-28T16:44:12.223Z,78.64
2016-12-28T16:45:34.680Z,78.42
2016-12-28T16:46:57.398Z,78.55
2016-12-28T16:48:19.049Z,78.55
2016-12-28T16:49:41.117Z,78.74
2016-12-28T16:51:03.586Z,78.83
2016-12-28T16:52:26.447Z,78.83
2016-12-28T16:53:48.913Z,79.03
2016-12-28T16:55:11.383Z,79.03
2016-12-28T16:56:34.102Z,79.03
2016-12-28T16:57:55.777Z,78.27
2016-12-28T16:59:18.223Z,77.98
2016-12-28T17:00:40.267Z,78.17
2016-12-28T17:02:01.923Z,78.08
2016-12-28T17:03:24.403Z,78.17
2016-12-28T17:04:45.646Z,78.17
2016-12-28T17:06:07.706Z,78.17
2016-12-28T17:07:30.151Z,78.17
2016-12-28T17:08:52.583Z,78.45
2016-12-28T17:10:15.089Z,78.08
2016-12-28T17:11:37.112Z,78.74
2016-12-28T17:12:59.223Z,78.64
2016-12-28T17:14:21.253Z,78.83
2016-12-28T17:15:42.517Z,79.03
2016-12-28T17:17:04.178Z,78.93
2016-12-28T17:18:25.424Z,78.45
2016-12-28T17:19:47.872Z,78.89
2016-12-28T17:21:09.993Z,79.5
2016-12-28T17:22:31.620Z,79.69
2016-12-28T17:23:53.697Z,79.5
2016-12-28T17:25:16.545Z,79.46
2016-12-28T17:26:39.153Z,80.22
2016-12-28T17:28:01.605Z,80.74
2016-12-28T17:29:24.078Z,81.17
2016-12-28T17:30:46.523Z,80.88
2016-12-28T17:32:09.372Z,81.07
2016-12-28T17:33:31.154Z,80.32
2016-12-28T17:34:53.304Z,81.17
2016-12-28T17:36:15.345Z,80.41
2016-12-28T17:37:38.375Z,80.51
2016-12-28T17:39:00.415Z,79.94
2016-12-28T17:40:22.911Z,80.32
2016-12-28T17:41:45.370Z,80.03
2016-12-28T17:43:07.783Z,79.46
2016-12-28T17:44:30.254Z,79.55